sensor_id;sensor_type;location;lat;lon;timestamp;P1;durP1;ratioP1;P2;durP2;ratioP2
8319;SDS011;4197;42.130;24.746;2022-11-15T00:00:48;46.83;;;30.40;;
8319;SDS011;4197;42.130;24.746;2022-11-15T00:03:17;50.87;;;32.17;;
8319;SDS011;4197;42.130;24.746;2022-11-15T00:05:48;49.20;;;32.30;;
8319;SDS011;4197;42.130;24.746;2022-11-15T00:08:17;43.63;;;32.20;;
8319;SDS011;4197;42.130;24.746;2022-11-15T00:10:53;51.80;;;33.20;;
8319;SDS011;4197;42.130;24.746;2022-11-15T00:13:22;53.60;;;34.00;;
8319;SDS011;4197;42.130;24.746;2022-11-15T00:15:50;53.00;;;31.73;;
8319;SDS011;4197;42.130;24.746;2022-11-15T00:18:18;48.20;;;31.50;;
8319;SDS011;4197;42.130;24.746;2022-11-15T00:20:46;50.43;;;31.87;;
8319;SDS011;4197;42.130;24.746;2022-11-15T00:23:16;49.83;;;32.10;;
8319;SDS011;4197;42.130;24.746;2022-11-15T00:25:44;48.33;;;31.23;;
8319;SDS011;4197;42.130;24.746;2022-11-15T00:28:12;48.40;;;31.87;;
8319;SDS011;4197;42.130;24.746;2022-11-15T00:30:40;46.73;;;31.40;;
8319;SDS011;4197;42.130;24.746;2022-11-15T00:33:08;46.80;;;31.07;;
8319;SDS011;4197;42.130;24.746;2022-11-15T00:35:37;50.00;;;31.50;;
8319;SDS011;4197;42.130;24.746;2022-11-15T00:38:06;46.17;;;30.70;;
8319;SDS011;4197;42.130;24.746;2022-11-15T00:40:34;47.53;;;31.47;;
8319;SDS011;4197;42.130;24.746;2022-11-15T00:43:02;51.90;;;32.33;;
8319;SDS011;4197;42.130;24.746;2022-11-15T00:45:31;48.43;;;31.53;;
8319;SDS011;4197;42.130;24.746;2022-11-15T00:47:59;49.20;;;31.53;;
8319;SDS011;4197;42.130;24.746;2022-11-15T00:50:27;48.80;;;31.77;;
8319;SDS011;4197;42.130;24.746;2022-11-15T00:52:55;46.30;;;30.73;;
8319;SDS011;4197;42.130;24.746;2022-11-15T00:55:24;46.07;;;31.43;;
8319;SDS011;4197;42.130;24.746;2022-11-15T00:57:52;48.90;;;32.60;;
8319;SDS011;4197;42.130;24.746;2022-11-15T01:00:21;54.70;;;33.53;;
8319;SDS011;4197;42.130;24.746;2022-11-15T01:02:49;45.67;;;30.30;;
8319;SDS011;4197;42.130;24.746;2022-11-15T01:05:17;45.47;;;29.03;;
8319;SDS011;4197;42.130;24.746;2022-11-15T01:07:45;42.23;;;28.93;;
8319;SDS011;4197;42.130;24.746;2022-11-15T01:10:14;46.03;;;28.93;;
8319;SDS011;4197;42.130;24.746;2022-11-15T01:12:43;41.63;;;26.67;;
8319;SDS011;4197;42.130;24.746;2022-11-15T01:15:11;40.23;;;27.03;;
8319;SDS011;4197;42.130;24.746;2022-11-15T01:17:39;43.53;;;26.70;;
8319;SDS011;4197;42.130;24.746;2022-11-15T01:20:08;44.33;;;27.20;;
8319;SDS011;4197;42.130;24.746;2022-11-15T01:22:37;40.23;;;27.20;;
8319;SDS011;4197;42.130;24.746;2022-11-15T01:25:05;43.53;;;26.43;;
8319;SDS011;4197;42.130;24.746;2022-11-15T01:27:33;45.30;;;27.97;;
8319;SDS011;4197;42.130;24.746;2022-11-15T01:30:04;46.00;;;28.47;;
8319;SDS011;4197;42.130;24.746;2022-11-15T01:32:33;41.73;;;26.50;;
8319;SDS011;4197;42.130;24.746;2022-11-15T01:35:01;46.67;;;29.43;;
8319;SDS011;4197;42.130;24.746;2022-11-15T01:37:29;46.60;;;28.60;;
8319;SDS011;4197;42.130;24.746;2022-11-15T01:39:57;38.77;;;26.87;;
8319;SDS011;4197;42.130;24.746;2022-11-15T01:42:26;44.63;;;28.73;;
8319;SDS011;4197;42.130;24.746;2022-11-15T01:44:54;40.00;;;25.90;;
8319;SDS011;4197;42.130;24.746;2022-11-15T01:47:24;41.73;;;26.87;;
8319;SDS011;4197;42.130;24.746;2022-11-15T01:49:56;41.23;;;27.73;;
8319;SDS011;4197;42.130;24.746;2022-11-15T01:52:28;39.80;;;25.50;;
8319;SDS011;4197;42.130;24.746;2022-11-15T01:55:01;40.97;;;26.20;;
8319;SDS011;4197;42.130;24.746;2022-11-15T01:57:32;39.50;;;25.73;;
8319;SDS011;4197;42.130;24.746;2022-11-15T02:00:02;43.00;;;27.83;;
8319;SDS011;4197;42.130;24.746;2022-11-15T02:02:33;44.47;;;26.27;;
8319;SDS011;4197;42.130;24.746;2022-11-15T02:05:05;44.37;;;26.30;;
8319;SDS011;4197;42.130;24.746;2022-11-15T02:07:34;40.00;;;26.63;;
8319;SDS011;4197;42.130;24.746;2022-11-15T02:10:04;44.03;;;26.33;;
8319;SDS011;4197;42.130;24.746;2022-11-15T02:12:35;41.23;;;27.07;;
8319;SDS011;4197;42.130;24.746;2022-11-15T02:15:05;39.20;;;26.87;;
8319;SDS011;4197;42.130;24.746;2022-11-15T02:17:44;43.20;;;26.87;;
8319;SDS011;4197;42.130;24.746;2022-11-15T02:20:30;42.00;;;26.57;;
8319;SDS011;4197;42.130;24.746;2022-11-15T02:23:24;40.83;;;25.83;;
8319;SDS011;4197;42.130;24.746;2022-11-15T02:26:19;45.50;;;25.40;;
8319;SDS011;4197;42.130;24.746;2022-11-15T02:29:07;45.57;;;26.00;;
8319;SDS011;4197;42.130;24.746;2022-11-15T02:31:41;38.97;;;25.33;;
8319;SDS011;4197;42.130;24.746;2022-11-15T02:34:17;42.33;;;25.90;;
8319;SDS011;4197;42.130;24.746;2022-11-15T02:36:56;42.40;;;25.30;;
8319;SDS011;4197;42.130;24.746;2022-11-15T02:39:33;45.20;;;26.30;;
8319;SDS011;4197;42.130;24.746;2022-11-15T02:42:06;38.20;;;24.43;;
8319;SDS011;4197;42.130;24.746;2022-11-15T02:44:59;38.07;;;25.03;;
8319;SDS011;4197;42.130;24.746;2022-11-15T02:47:32;45.30;;;27.60;;
8319;SDS011;4197;42.130;24.746;2022-11-15T02:50:07;40.73;;;25.37;;
8319;SDS011;4197;42.130;24.746;2022-11-15T02:52:38;42.67;;;27.17;;
8319;SDS011;4197;42.130;24.746;2022-11-15T02:57:55;38.87;;;24.97;;
8319;SDS011;4197;42.130;24.746;2022-11-15T03:00:34;40.07;;;25.73;;
8319;SDS011;4197;42.130;24.746;2022-11-15T03:03:16;41.60;;;25.97;;
8319;SDS011;4197;42.130;24.746;2022-11-15T03:06:08;40.73;;;25.80;;
8319;SDS011;4197;42.130;24.746;2022-11-15T03:08:44;39.87;;;25.00;;
8319;SDS011;4197;42.130;24.746;2022-11-15T03:11:21;42.87;;;26.27;;
8319;SDS011;4197;42.130;24.746;2022-11-15T03:13:52;43.27;;;26.20;;
8319;SDS011;4197;42.130;24.746;2022-11-15T03:16:26;45.83;;;27.47;;
8319;SDS011;4197;42.130;24.746;2022-11-15T03:19:00;42.57;;;27.17;;
8319;SDS011;4197;42.130;24.746;2022-11-15T03:21:35;39.80;;;26.57;;
8319;SDS011;4197;42.130;24.746;2022-11-15T03:24:07;45.90;;;27.73;;
8319;SDS011;4197;42.130;24.746;2022-11-15T03:26:36;44.50;;;27.83;;
8319;SDS011;4197;42.130;24.746;2022-11-15T03:29:09;43.10;;;26.13;;
8319;SDS011;4197;42.130;24.746;2022-11-15T03:31:42;45.07;;;26.13;;
8319;SDS011;4197;42.130;24.746;2022-11-15T03:34:20;31.83;;;22.13;;
8319;SDS011;4197;42.130;24.746;2022-11-15T03:36:54;36.43;;;22.03;;
8319;SDS011;4197;42.130;24.746;2022-11-15T03:39:23;39.23;;;23.00;;
8319;SDS011;4197;42.130;24.746;2022-11-15T03:41:54;33.97;;;22.33;;
8319;SDS011;4197;42.130;24.746;2022-11-15T03:44:34;34.50;;;23.10;;
8319;SDS011;4197;42.130;24.746;2022-11-15T03:47:09;37.70;;;24.27;;
8319;SDS011;4197;42.130;24.746;2022-11-15T03:49:42;34.80;;;23.30;;
8319;SDS011;4197;42.130;24.746;2022-11-15T03:52:14;35.67;;;23.17;;
8319;SDS011;4197;42.130;24.746;2022-11-15T03:54:49;41.13;;;23.50;;
8319;SDS011;4197;42.130;24.746;2022-11-15T03:57:19;38.03;;;23.37;;
8319;SDS011;4197;42.130;24.746;2022-11-15T03:59:48;35.73;;;23.07;;
8319;SDS011;4197;42.130;24.746;2022-11-15T04:02:16;38.63;;;24.43;;
8319;SDS011;4197;42.130;24.746;2022-11-15T04:04:45;41.37;;;25.93;;
8319;SDS011;4197;42.130;24.746;2022-11-15T04:07:13;40.37;;;25.80;;
8319;SDS011;4197;42.130;24.746;2022-11-15T04:09:42;43.87;;;24.27;;
8319;SDS011;4197;42.130;24.746;2022-11-15T04:12:24;44.87;;;26.00;;
8319;SDS011;4197;42.130;24.746;2022-11-15T04:14:59;41.13;;;25.10;;
8319;SDS011;4197;42.130;24.746;2022-11-15T04:17:35;42.97;;;26.00;;
8319;SDS011;4197;42.130;24.746;2022-11-15T04:20:06;38.10;;;24.10;;
8319;SDS011;4197;42.130;24.746;2022-11-15T04:22:54;38.83;;;24.37;;
8319;SDS011;4197;42.130;24.746;2022-11-15T04:25:40;39.07;;;25.07;;
8319;SDS011;4197;42.130;24.746;2022-11-15T04:28:09;41.93;;;24.03;;
8319;SDS011;4197;42.130;24.746;2022-11-15T04:30:38;36.70;;;23.50;;
8319;SDS011;4197;42.130;24.746;2022-11-15T04:33:06;38.10;;;23.43;;
8319;SDS011;4197;42.130;24.746;2022-11-15T04:35:36;38.97;;;22.87;;
8319;SDS011;4197;42.130;24.746;2022-11-15T04:38:05;35.50;;;23.30;;
8319;SDS011;4197;42.130;24.746;2022-11-15T04:40:33;34.80;;;21.60;;
8319;SDS011;4197;42.130;24.746;2022-11-15T04:43:02;32.27;;;21.87;;
8319;SDS011;4197;42.130;24.746;2022-11-15T04:45:31;41.00;;;24.47;;
8319;SDS011;4197;42.130;24.746;2022-11-15T04:47:59;35.73;;;22.90;;
8319;SDS011;4197;42.130;24.746;2022-11-15T04:50:27;36.53;;;22.27;;
8319;SDS011;4197;42.130;24.746;2022-11-15T04:52:57;32.30;;;21.50;;
8319;SDS011;4197;42.130;24.746;2022-11-15T04:55:25;37.00;;;22.90;;
8319;SDS011;4197;42.130;24.746;2022-11-15T04:57:59;35.10;;;21.63;;
8319;SDS011;4197;42.130;24.746;2022-11-15T05:00:28;51.37;;;23.57;;
8319;SDS011;4197;42.130;24.746;2022-11-15T05:02:57;34.50;;;22.23;;
8319;SDS011;4197;42.130;24.746;2022-11-15T05:05:42;38.83;;;25.67;;
8319;SDS011;4197;42.130;24.746;2022-11-15T05:08:12;47.00;;;31.47;;
8319;SDS011;4197;42.130;24.746;2022-11-15T05:10:40;35.00;;;22.97;;
8319;SDS011;4197;42.130;24.746;2022-11-15T05:13:08;37.33;;;22.07;;
8319;SDS011;4197;42.130;24.746;2022-11-15T05:15:36;37.87;;;23.93;;
8319;SDS011;4197;42.130;24.746;2022-11-15T05:18:04;34.83;;;21.47;;
8319;SDS011;4197;42.130;24.746;2022-11-15T05:20:32;37.93;;;23.47;;
8319;SDS011;4197;42.130;24.746;2022-11-15T05:23:00;34.00;;;22.83;;
8319;SDS011;4197;42.130;24.746;2022-11-15T05:25:30;41.50;;;23.97;;
8319;SDS011;4197;42.130;24.746;2022-11-15T05:27:58;36.00;;;22.57;;
8319;SDS011;4197;42.130;24.746;2022-11-15T05:30:26;41.10;;;22.97;;
8319;SDS011;4197;42.130;24.746;2022-11-15T05:32:54;40.60;;;26.30;;
8319;SDS011;4197;42.130;24.746;2022-11-15T05:35:30;47.10;;;29.27;;
8319;SDS011;4197;42.130;24.746;2022-11-15T05:38:01;45.10;;;25.87;;
8319;SDS011;4197;42.130;24.746;2022-11-15T05:40:31;53.13;;;25.50;;
8319;SDS011;4197;42.130;24.746;2022-11-15T05:43:01;36.47;;;22.00;;
8319;SDS011;4197;42.130;24.746;2022-11-15T05:45:31;30.67;;;19.73;;
8319;SDS011;4197;42.130;24.746;2022-11-15T05:48:00;33.70;;;20.97;;
8319;SDS011;4197;42.130;24.746;2022-11-15T05:50:35;34.47;;;20.93;;
8319;SDS011;4197;42.130;24.746;2022-11-15T05:53:04;32.73;;;21.37;;
8319;SDS011;4197;42.130;24.746;2022-11-15T05:55:34;48.67;;;24.87;;
8319;SDS011;4197;42.130;24.746;2022-11-15T05:58:05;38.90;;;21.97;;
8319;SDS011;4197;42.130;24.746;2022-11-15T06:00:33;36.57;;;21.73;;
8319;SDS011;4197;42.130;24.746;2022-11-15T06:03:01;33.50;;;21.30;;
8319;SDS011;4197;42.130;24.746;2022-11-15T06:05:29;41.37;;;21.40;;
8319;SDS011;4197;42.130;24.746;2022-11-15T06:07:58;40.40;;;21.50;;
8319;SDS011;4197;42.130;24.746;2022-11-15T06:10:26;32.57;;;20.17;;
8319;SDS011;4197;42.130;24.746;2022-11-15T06:12:59;33.67;;;21.10;;
8319;SDS011;4197;42.130;24.746;2022-11-15T06:15:27;32.53;;;20.20;;
8319;SDS011;4197;42.130;24.746;2022-11-15T06:17:56;36.27;;;21.53;;
8319;SDS011;4197;42.130;24.746;2022-11-15T06:20:25;33.23;;;21.40;;
8319;SDS011;4197;42.130;24.746;2022-11-15T06:22:56;37.03;;;21.37;;
8319;SDS011;4197;42.130;24.746;2022-11-15T06:25:25;41.80;;;20.60;;
8319;SDS011;4197;42.130;24.746;2022-11-15T06:27:54;41.93;;;22.23;;
8319;SDS011;4197;42.130;24.746;2022-11-15T06:30:25;37.90;;;22.03;;
8319;SDS011;4197;42.130;24.746;2022-11-15T06:32:58;35.47;;;21.63;;
8319;SDS011;4197;42.130;24.746;2022-11-15T06:35:28;35.03;;;22.43;;
8319;SDS011;4197;42.130;24.746;2022-11-15T06:38:01;41.83;;;22.97;;
8319;SDS011;4197;42.130;24.746;2022-11-15T06:40:32;44.40;;;28.63;;
8319;SDS011;4197;42.130;24.746;2022-11-15T06:43:01;39.17;;;25.37;;
8319;SDS011;4197;42.130;24.746;2022-11-15T06:45:31;38.33;;;21.80;;
8319;SDS011;4197;42.130;24.746;2022-11-15T06:47:59;39.90;;;23.20;;
8319;SDS011;4197;42.130;24.746;2022-11-15T06:50:28;34.57;;;21.73;;
8319;SDS011;4197;42.130;24.746;2022-11-15T06:53:00;34.50;;;20.57;;
8319;SDS011;4197;42.130;24.746;2022-11-15T06:55:29;38.10;;;20.23;;
8319;SDS011;4197;42.130;24.746;2022-11-15T06:57:58;32.60;;;18.70;;
8319;SDS011;4197;42.130;24.746;2022-11-15T07:00:26;32.97;;;19.50;;
8319;SDS011;4197;42.130;24.746;2022-11-15T07:02:56;29.47;;;18.20;;
8319;SDS011;4197;42.130;24.746;2022-11-15T07:05:27;33.40;;;19.77;;
8319;SDS011;4197;42.130;24.746;2022-11-15T07:07:56;34.90;;;18.37;;
8319;SDS011;4197;42.130;24.746;2022-11-15T07:10:25;36.43;;;18.30;;
8319;SDS011;4197;42.130;24.746;2022-11-15T07:12:55;32.77;;;17.17;;
8319;SDS011;4197;42.130;24.746;2022-11-15T07:15:24;28.77;;;18.20;;
8319;SDS011;4197;42.130;24.746;2022-11-15T07:17:53;28.13;;;17.80;;
8319;SDS011;4197;42.130;24.746;2022-11-15T07:20:22;43.07;;;19.43;;
8319;SDS011;4197;42.130;24.746;2022-11-15T07:22:50;35.53;;;20.67;;
8319;SDS011;4197;42.130;24.746;2022-11-15T07:25:18;29.93;;;19.83;;
8319;SDS011;4197;42.130;24.746;2022-11-15T07:27:53;35.50;;;21.27;;
8319;SDS011;4197;42.130;24.746;2022-11-15T07:30:22;30.63;;;18.47;;
8319;SDS011;4197;42.130;24.746;2022-11-15T07:32:52;35.40;;;19.70;;
8319;SDS011;4197;42.130;24.746;2022-11-15T07:35:21;28.30;;;19.40;;
8319;SDS011;4197;42.130;24.746;2022-11-15T07:37:54;34.07;;;19.30;;
8319;SDS011;4197;42.130;24.746;2022-11-15T07:40:24;33.30;;;19.47;;
8319;SDS011;4197;42.130;24.746;2022-11-15T07:42:53;29.97;;;19.17;;
8319;SDS011;4197;42.130;24.746;2022-11-15T07:45:26;35.33;;;18.63;;
8319;SDS011;4197;42.130;24.746;2022-11-15T07:47:55;35.47;;;18.73;;
8319;SDS011;4197;42.130;24.746;2022-11-15T07:50:25;28.00;;;18.37;;
8319;SDS011;4197;42.130;24.746;2022-11-15T07:52:54;31.97;;;18.77;;
8319;SDS011;4197;42.130;24.746;2022-11-15T07:55:23;32.43;;;20.00;;
8319;SDS011;4197;42.130;24.746;2022-11-15T07:57:51;34.67;;;18.83;;
8319;SDS011;4197;42.130;24.746;2022-11-15T08:00:19;36.77;;;18.60;;
8319;SDS011;4197;42.130;24.746;2022-11-15T08:02:47;32.30;;;19.87;;
8319;SDS011;4197;42.130;24.746;2022-11-15T08:05:16;34.87;;;20.10;;
8319;SDS011;4197;42.130;24.746;2022-11-15T08:07:45;29.00;;;19.70;;
8319;SDS011;4197;42.130;24.746;2022-11-15T08:10:13;36.13;;;20.70;;
8319;SDS011;4197;42.130;24.746;2022-11-15T08:12:45;33.63;;;20.53;;
8319;SDS011;4197;42.130;24.746;2022-11-15T08:15:14;32.30;;;21.33;;
8319;SDS011;4197;42.130;24.746;2022-11-15T08:17:42;32.83;;;19.70;;
8319;SDS011;4197;42.130;24.746;2022-11-15T08:20:10;32.37;;;20.30;;
8319;SDS011;4197;42.130;24.746;2022-11-15T08:22:38;32.10;;;20.47;;
8319;SDS011;4197;42.130;24.746;2022-11-15T08:25:08;26.53;;;18.23;;
8319;SDS011;4197;42.130;24.746;2022-11-15T08:27:36;28.43;;;18.57;;
8319;SDS011;4197;42.130;24.746;2022-11-15T08:30:05;33.13;;;18.43;;
8319;SDS011;4197;42.130;24.746;2022-11-15T08:32:33;34.43;;;19.83;;
8319;SDS011;4197;42.130;24.746;2022-11-15T08:35:02;32.70;;;19.70;;
8319;SDS011;4197;42.130;24.746;2022-11-15T08:37:30;30.17;;;19.20;;
8319;SDS011;4197;42.130;24.746;2022-11-15T08:39:58;35.40;;;19.80;;
8319;SDS011;4197;42.130;24.746;2022-11-15T08:42:28;28.33;;;20.27;;
8319;SDS011;4197;42.130;24.746;2022-11-15T08:44:56;29.37;;;19.13;;
8319;SDS011;4197;42.130;24.746;2022-11-15T08:47:24;37.67;;;19.60;;
8319;SDS011;4197;42.130;24.746;2022-11-15T08:49:52;30.57;;;19.60;;
8319;SDS011;4197;42.130;24.746;2022-11-15T08:52:21;35.13;;;22.37;;
8319;SDS011;4197;42.130;24.746;2022-11-15T08:54:49;33.97;;;20.90;;
8319;SDS011;4197;42.130;24.746;2022-11-15T08:57:17;29.87;;;20.40;;
8319;SDS011;4197;42.130;24.746;2022-11-15T08:59:47;35.23;;;21.30;;
8319;SDS011;4197;42.130;24.746;2022-11-15T09:02:15;32.30;;;20.90;;
8319;SDS011;4197;42.130;24.746;2022-11-15T09:04:43;36.10;;;23.47;;
8319;SDS011;4197;42.130;24.746;2022-11-15T09:07:12;29.27;;;21.63;;
8319;SDS011;4197;42.130;24.746;2022-11-15T09:09:41;30.20;;;21.57;;
8319;SDS011;4197;42.130;24.746;2022-11-15T09:12:09;34.43;;;22.90;;
8319;SDS011;4197;42.130;24.746;2022-11-15T09:14:38;40.83;;;23.57;;
8319;SDS011;4197;42.130;24.746;2022-11-15T09:17:08;37.03;;;22.83;;
8319;SDS011;4197;42.130;24.746;2022-11-15T09:19:36;36.87;;;23.83;;
8319;SDS011;4197;42.130;24.746;2022-11-15T09:22:05;32.57;;;22.53;;
8319;SDS011;4197;42.130;24.746;2022-11-15T09:24:34;35.90;;;23.70;;
8319;SDS011;4197;42.130;24.746;2022-11-15T09:27:02;38.70;;;25.33;;
8319;SDS011;4197;42.130;24.746;2022-11-15T09:29:47;40.70;;;23.10;;
8319;SDS011;4197;42.130;24.746;2022-11-15T09:32:17;35.33;;;24.00;;
8319;SDS011;4197;42.130;24.746;2022-11-15T09:34:45;34.07;;;24.07;;
8319;SDS011;4197;42.130;24.746;2022-11-15T09:37:13;37.63;;;24.17;;
8319;SDS011;4197;42.130;24.746;2022-11-15T09:39:41;42.03;;;24.97;;
8319;SDS011;4197;42.130;24.746;2022-11-15T09:42:22;38.20;;;24.87;;
8319;SDS011;4197;42.130;24.746;2022-11-15T09:45:09;38.73;;;24.13;;
8319;SDS011;4197;42.130;24.746;2022-11-15T09:47:49;38.97;;;25.87;;
8319;SDS011;4197;42.130;24.746;2022-11-15T09:50:37;39.33;;;24.37;;
8319;SDS011;4197;42.130;24.746;2022-11-15T09:53:09;36.27;;;23.73;;
8319;SDS011;4197;42.130;24.746;2022-11-15T09:55:43;34.30;;;22.80;;
8319;SDS011;4197;42.130;24.746;2022-11-15T09:58:20;31.27;;;23.13;;
8319;SDS011;4197;42.130;24.746;2022-11-15T10:00:55;31.27;;;21.43;;
8319;SDS011;4197;42.130;24.746;2022-11-15T10:03:28;38.20;;;23.70;;
8319;SDS011;4197;42.130;24.746;2022-11-15T10:06:01;34.00;;;22.23;;
8319;SDS011;4197;42.130;24.746;2022-11-15T10:08:35;33.30;;;23.27;;
8319;SDS011;4197;42.130;24.746;2022-11-15T10:11:14;36.03;;;22.73;;
8319;SDS011;4197;42.130;24.746;2022-11-15T10:14:04;46.37;;;24.50;;
8319;SDS011;4197;42.130;24.746;2022-11-15T10:19:37;35.63;;;24.03;;
8319;SDS011;4197;42.130;24.746;2022-11-15T10:22:17;37.17;;;24.10;;
8319;SDS011;4197;42.130;24.746;2022-11-15T10:25:16;45.53;;;25.70;;
8319;SDS011;4197;42.130;24.746;2022-11-15T10:27:50;36.43;;;24.30;;
8319;SDS011;4197;42.130;24.746;2022-11-15T10:30:22;35.60;;;25.13;;
8319;SDS011;4197;42.130;24.746;2022-11-15T10:32:56;36.67;;;24.40;;
8319;SDS011;4197;42.130;24.746;2022-11-15T10:35:26;33.87;;;24.73;;
8319;SDS011;4197;42.130;24.746;2022-11-15T10:38:04;32.50;;;24.20;;
8319;SDS011;4197;42.130;24.746;2022-11-15T10:40:34;35.53;;;24.97;;
8319;SDS011;4197;42.130;24.746;2022-11-15T10:43:12;34.28;;;24.98;;
8319;SDS011;4197;42.130;24.746;2022-11-15T10:45:43;32.63;;;24.20;;
8319;SDS011;4197;42.130;24.746;2022-11-15T10:48:24;33.80;;;24.07;;
8319;SDS011;4197;42.130;24.746;2022-11-15T10:50:54;32.07;;;23.23;;
8319;SDS011;4197;42.130;24.746;2022-11-15T10:53:24;37.70;;;25.43;;
8319;SDS011;4197;42.130;24.746;2022-11-15T10:56:00;37.03;;;24.70;;
8319;SDS011;4197;42.130;24.746;2022-11-15T10:58:32;34.80;;;24.47;;
8319;SDS011;4197;42.130;24.746;2022-11-15T11:01:14;37.30;;;24.43;;
8319;SDS011;4197;42.130;24.746;2022-11-15T11:03:45;30.93;;;21.93;;
8319;SDS011;4197;42.130;24.746;2022-11-15T11:06:27;35.57;;;24.63;;
8319;SDS011;4197;42.130;24.746;2022-11-15T11:08:56;37.43;;;25.40;;
8319;SDS011;4197;42.130;24.746;2022-11-15T11:11:25;41.63;;;26.13;;
8319;SDS011;4197;42.130;24.746;2022-11-15T11:14:12;36.73;;;25.43;;
8319;SDS011;4197;42.130;24.746;2022-11-15T11:16:47;37.90;;;25.17;;
8319;SDS011;4197;42.130;24.746;2022-11-15T11:19:27;44.37;;;27.43;;
8319;SDS011;4197;42.130;24.746;2022-11-15T11:22:05;39.23;;;25.30;;
8319;SDS011;4197;42.130;24.746;2022-11-15T11:24:41;39.03;;;24.60;;
8319;SDS011;4197;42.130;24.746;2022-11-15T11:27:14;34.43;;;24.50;;
8319;SDS011;4197;42.130;24.746;2022-11-15T11:29:53;37.67;;;24.80;;
8319;SDS011;4197;42.130;24.746;2022-11-15T11:32:34;34.40;;;24.17;;
8319;SDS011;4197;42.130;24.746;2022-11-15T11:35:24;34.17;;;24.47;;
8319;SDS011;4197;42.130;24.746;2022-11-15T11:38:02;36.77;;;25.60;;
8319;SDS011;4197;42.130;24.746;2022-11-15T11:40:53;40.37;;;26.23;;
8319;SDS011;4197;42.130;24.746;2022-11-15T11:43:30;41.73;;;25.97;;
8319;SDS011;4197;42.130;24.746;2022-11-15T11:46:24;35.23;;;24.63;;
8319;SDS011;4197;42.130;24.746;2022-11-15T11:49:06;35.87;;;24.63;;
8319;SDS011;4197;42.130;24.746;2022-11-15T11:51:38;35.23;;;23.37;;
8319;SDS011;4197;42.130;24.746;2022-11-15T11:54:12;36.93;;;24.47;;
8319;SDS011;4197;42.130;24.746;2022-11-15T11:56:45;36.13;;;24.70;;
8319;SDS011;4197;42.130;24.746;2022-11-15T11:59:16;37.63;;;24.87;;
8319;SDS011;4197;42.130;24.746;2022-11-15T12:01:50;37.03;;;24.63;;
8319;SDS011;4197;42.130;24.746;2022-11-15T12:04:20;34.17;;;24.13;;
8319;SDS011;4197;42.130;24.746;2022-11-15T12:06:55;37.00;;;25.87;;
8319;SDS011;4197;42.130;24.746;2022-11-15T12:09:30;39.23;;;26.77;;
8319;SDS011;4197;42.130;24.746;2022-11-15T12:12:04;40.50;;;26.87;;
8319;SDS011;4197;42.130;24.746;2022-11-15T12:14:39;37.50;;;26.30;;
8319;SDS011;4197;42.130;24.746;2022-11-15T12:17:11;33.93;;;24.93;;
8319;SDS011;4197;42.130;24.746;2022-11-15T12:19:40;36.50;;;24.73;;
8319;SDS011;4197;42.130;24.746;2022-11-15T12:22:12;41.93;;;26.03;;
8319;SDS011;4197;42.130;24.746;2022-11-15T12:24:54;38.53;;;24.27;;
8319;SDS011;4197;42.130;24.746;2022-11-15T12:27:26;38.97;;;24.13;;
8319;SDS011;4197;42.130;24.746;2022-11-15T12:30:02;34.07;;;23.50;;
8319;SDS011;4197;42.130;24.746;2022-11-15T12:32:36;36.07;;;24.67;;
8319;SDS011;4197;42.130;24.746;2022-11-15T12:35:20;33.63;;;24.83;;
8319;SDS011;4197;42.130;24.746;2022-11-15T12:37:52;30.17;;;22.57;;
8319;SDS011;4197;42.130;24.746;2022-11-15T12:40:31;33.37;;;24.40;;
8319;SDS011;4197;42.130;24.746;2022-11-15T12:43:05;32.33;;;23.77;;
8319;SDS011;4197;42.130;24.746;2022-11-15T12:46:11;34.73;;;25.23;;
8319;SDS011;4197;42.130;24.746;2022-11-15T12:48:50;32.53;;;22.47;;
8319;SDS011;4197;42.130;24.746;2022-11-15T12:51:21;36.30;;;24.20;;
8319;SDS011;4197;42.130;24.746;2022-11-15T12:57:34;35.07;;;22.90;;
8319;SDS011;4197;42.130;24.746;2022-11-15T13:03:21;35.00;;;24.97;;
8319;SDS011;4197;42.130;24.746;2022-11-15T13:08:56;34.33;;;25.50;;
8319;SDS011;4197;42.130;24.746;2022-11-15T13:11:44;35.63;;;25.63;;
8319;SDS011;4197;42.130;24.746;2022-11-15T13:17:23;36.43;;;24.47;;
8319;SDS011;4197;42.130;24.746;2022-11-15T13:22:48;30.03;;;22.47;;
8319;SDS011;4197;42.130;24.746;2022-11-15T13:28:24;37.60;;;25.70;;
8319;SDS011;4197;42.130;24.746;2022-11-15T13:31:03;32.77;;;24.93;;
8319;SDS011;4197;42.130;24.746;2022-11-15T13:33:42;32.60;;;23.60;;
8319;SDS011;4197;42.130;24.746;2022-11-15T13:36:13;31.50;;;23.73;;
8319;SDS011;4197;42.130;24.746;2022-11-15T13:38:43;37.00;;;23.73;;
8319;SDS011;4197;42.130;24.746;2022-11-15T13:41:16;34.20;;;25.47;;
8319;SDS011;4197;42.130;24.746;2022-11-15T13:43:46;34.93;;;23.70;;
8319;SDS011;4197;42.130;24.746;2022-11-15T13:46:17;36.60;;;24.17;;
8319;SDS011;4197;42.130;24.746;2022-11-15T13:48:51;37.83;;;26.33;;
8319;SDS011;4197;42.130;24.746;2022-11-15T13:51:21;39.33;;;26.77;;
8319;SDS011;4197;42.130;24.746;2022-11-15T13:53:57;38.87;;;27.17;;
8319;SDS011;4197;42.130;24.746;2022-11-15T13:56:29;41.60;;;27.57;;
8319;SDS011;4197;42.130;24.746;2022-11-15T13:59:00;43.97;;;29.00;;
8319;SDS011;4197;42.130;24.746;2022-11-15T14:01:36;39.77;;;27.97;;
8319;SDS011;4197;42.130;24.746;2022-11-15T14:04:10;43.20;;;29.57;;
8319;SDS011;4197;42.130;24.746;2022-11-15T14:06:44;39.83;;;27.40;;
8319;SDS011;4197;42.130;24.746;2022-11-15T14:09:31;40.17;;;27.57;;
8319;SDS011;4197;42.130;24.746;2022-11-15T14:12:02;42.90;;;30.77;;
8319;SDS011;4197;42.130;24.746;2022-11-15T14:14:45;45.53;;;30.80;;
8319;SDS011;4197;42.130;24.746;2022-11-15T14:17:19;43.73;;;30.27;;
8319;SDS011;4197;42.130;24.746;2022-11-15T14:19:50;42.97;;;32.23;;
8319;SDS011;4197;42.130;24.746;2022-11-15T14:22:20;44.83;;;29.43;;
8319;SDS011;4197;42.130;24.746;2022-11-15T14:25:13;40.10;;;28.57;;
8319;SDS011;4197;42.130;24.746;2022-11-15T14:27:43;41.80;;;28.03;;
8319;SDS011;4197;42.130;24.746;2022-11-15T14:30:13;44.10;;;27.57;;
8319;SDS011;4197;42.130;24.746;2022-11-15T14:32:45;40.77;;;28.00;;
8319;SDS011;4197;42.130;24.746;2022-11-15T14:35:15;42.93;;;28.37;;
8319;SDS011;4197;42.130;24.746;2022-11-15T14:37:46;43.07;;;29.40;;
8319;SDS011;4197;42.130;24.746;2022-11-15T14:40:15;48.33;;;29.13;;
8319;SDS011;4197;42.130;24.746;2022-11-15T14:42:46;44.53;;;29.23;;
8319;SDS011;4197;42.130;24.746;2022-11-15T14:45:15;42.93;;;29.40;;
8319;SDS011;4197;42.130;24.746;2022-11-15T14:47:47;40.03;;;27.93;;
8319;SDS011;4197;42.130;24.746;2022-11-15T14:50:16;49.87;;;30.20;;
8319;SDS011;4197;42.130;24.746;2022-11-15T14:52:47;40.43;;;29.50;;
8319;SDS011;4197;42.130;24.746;2022-11-15T14:55:17;48.57;;;29.33;;
8319;SDS011;4197;42.130;24.746;2022-11-15T14:57:49;42.93;;;29.63;;
8319;SDS011;4197;42.130;24.746;2022-11-15T15:00:18;45.23;;;29.53;;
8319;SDS011;4197;42.130;24.746;2022-11-15T15:02:48;57.60;;;37.23;;
8319;SDS011;4197;42.130;24.746;2022-11-15T15:05:18;50.97;;;33.53;;
8319;SDS011;4197;42.130;24.746;2022-11-15T15:07:48;41.03;;;30.10;;
8319;SDS011;4197;42.130;24.746;2022-11-15T15:10:18;44.63;;;29.73;;
8319;SDS011;4197;42.130;24.746;2022-11-15T15:13:08;49.10;;;30.87;;
8319;SDS011;4197;42.130;24.746;2022-11-15T15:15:44;51.93;;;30.97;;
8319;SDS011;4197;42.130;24.746;2022-11-15T15:18:14;45.57;;;30.67;;
8319;SDS011;4197;42.130;24.746;2022-11-15T15:20:43;49.33;;;31.90;;
8319;SDS011;4197;42.130;24.746;2022-11-15T15:23:16;47.27;;;30.50;;
8319;SDS011;4197;42.130;24.746;2022-11-15T15:25:45;51.77;;;32.13;;
8319;SDS011;4197;42.130;24.746;2022-11-15T15:28:15;47.63;;;31.43;;